Donny Nolan — WDI7388 — position and weather

sailwx.info

Track history (hours):
 
Tides and Currents Weather Stations Pressure Air Temp Water Temp Dewpoint Dewpoint Depression Visibility Wind Speed Wind Dir Waves Ship Positions

Donny Nolan

Owner: Kirby Inland Marine LP, Houston, TX. More information available from US FCC via Universal Licensing System and Coast Guard Vessel Documentation Center.

Last reported at 2018-Jun-20 19:53 UTC. Time now 2018-Jun-21 12:20 UTC.
Position N 28°56' W 095°20'.

Length 214 m; draft 3 m.

Type: . MMSI: 367415220.

Date/timePositionNaut miles runAvg speedWind from/ knotsBaromVisibWave heightAir tempDewpointWater temp
2018-Jun-20 19:53N 28°56' W 095°20'2 4.5
2018-Jun-20 19:30N 28°57' W 095°18'2 4.8
2018-Jun-20 19:00N 28°59' W 095°17'2 4.8
2018-Jun-20 18:30N 29°00' W 095°15'2 4.6
2018-Jun-20 18:00N 29°02' W 095°14'2 4.5
2018-Jun-20 17:30N 29°04' W 095°13'2 4.4
2018-Jun-20 17:00N 29°06' W 095°12'2 4.7
2018-Jun-20 16:30N 29°08' W 095°10'3 5.2
2018-Jun-20 16:00N 29°10' W 095°08'2 4.6
2018-Jun-20 15:29N 29°11' W 095°05'2 4.8
2018-Jun-20 15:00N 29°12' W 095°03'2 4.3
2018-Jun-20 14:30N 29°14' W 095°02'2 4.5
2018-Jun-20 14:00N 29°16' W 094°60'2 4.5
2018-Jun-20 13:30N 29°17' W 094°58'2 4.6
2018-Jun-20 13:00N 29°17' W 094°55'2 4.0
2018-Jun-20 12:30N 29°18' W 094°53'2 4.8
2018-Jun-20 12:00N 29°20' W 094°51'21 4.7
2018-Jun-20 07:26N 29°31' W 094°30'2 4.3
2018-Jun-20 06:59N 29°32' W 094°29'0 0.4
2018-Jun-20 06:29N 29°33' W 094°28'1 1.3
2018-Jun-20 05:53N 29°33' W 094°28'2 5.2
2018-Jun-20 05:25N 29°34' W 094°25'2 4.2
2018-Jun-20 05:00N 29°36' W 094°25'2 4.7
2018-Jun-20 04:30N 29°36' W 094°22'3 5.1
2018-Jun-20 04:00N 29°37' W 094°20'3 5.1
2018-Jun-20 03:30N 29°39' W 094°17'3 5.2
2018-Jun-20 03:00N 29°40' W 094°14'3 5.1
2018-Jun-20 02:30N 29°41' W 094°12'2 4.9
2018-Jun-20 02:00N 29°42' W 094°09'2 4.9
2018-Jun-20 01:30N 29°43' W 094°07'2 4.9
2018-Jun-20 01:00N 29°45' W 094°05'2 4.9
2018-Jun-20 00:30N 29°46' W 094°02'2 4.7
2018-Jun-20 00:01N 29°48' W 094°00'2 4.5
2018-Jun-19 23:30N 29°49' W 093°58'3 5.4
2018-Jun-19 23:00N 29°51' W 093°57'3 6.4
2018-Jun-19 22:30N 29°54' W 093°54'3 6.4
2018-Jun-19 22:00N 29°56' W 093°52'2 4.9
2018-Jun-19 21:30N 29°59' W 093°53'1 2.5
2018-Jun-19 21:00N 29°59' W 093°54'0 0.9
2018-Jun-19 20:30N 29°59' W 093°54'1 1.1
2018-Jun-19 20:01N 29°60' W 093°55'0 0.1
2018-Jun-19 19:30N 29°60' W 093°55'0 0.1
2018-Jun-19 19:00N 29°60' W 093°55'0 0.0
2018-Jun-19 18:30N 29°60' W 093°55'0 0.0
2018-Jun-19 18:00N 29°60' W 093°55'0 0.0
2018-Jun-19 17:30N 29°60' W 093°55'0 0.0
2018-Jun-19 17:00N 29°60' W 093°55'0 0.0
2018-Jun-19 16:30N 29°60' W 093°55'0 0.0
2018-Jun-19 16:00N 29°60' W 093°55'0 0.0
2018-Jun-19 15:30N 29°60' W 093°55'0 0.0
2018-Jun-19 15:00N 29°60' W 093°55'0 0.0
2018-Jun-19 14:30N 29°60' W 093°55'0 0.0
2018-Jun-19 14:00N 29°60' W 093°55'0 0.0
2018-Jun-19 13:30N 29°60' W 093°55'0 0.0
2018-Jun-19 13:00N 29°60' W 093°55'0 0.0
2018-Jun-19 12:30N 29°60' W 093°55'0 0.0
2018-Jun-19 12:00N 29°60' W 093°55'0 0.0
2018-Jun-19 11:30N 29°60' W 093°55'0 0.0
2018-Jun-19 11:00N 29°60' W 093°55'0 0.0
2018-Jun-19 10:30N 29°60' W 093°55'0 0.0
2018-Jun-19 09:56N 29°60' W 093°55'0 0.0
2018-Jun-19 09:30N 29°60' W 093°55'0 0.0
2018-Jun-19 09:00N 29°60' W 093°55'0 0.0
2018-Jun-19 08:30N 29°60' W 093°55'0 0.0
2018-Jun-19 07:59N 29°60' W 093°55'0 0.0
2018-Jun-19 07:30N 29°60' W 093°55'0 0.0
2018-Jun-19 07:00N 29°60' W 093°55'0 0.0
2018-Jun-19 06:30N 29°60' W 093°55'0 0.0
2018-Jun-19 06:00N 29°60' W 093°55'0 0.0
2018-Jun-19 05:30N 29°60' W 093°55'0 0.0
2018-Jun-19 05:00N 29°60' W 093°55'0 0.0
2018-Jun-19 04:30N 29°60' W 093°55'0 0.0
2018-Jun-19 04:00N 29°60' W 093°55'0 0.0
2018-Jun-19 03:30N 29°60' W 093°55'0 0.0
2018-Jun-19 03:00N 29°60' W 093°55'0 0.0
2018-Jun-19 02:30N 29°60' W 093°55'0 0.0
2018-Jun-19 02:00N 29°60' W 093°55'0 0.0
2018-Jun-19 01:30N 29°60' W 093°55'0 0.0
2018-Jun-19 01:00N 29°60' W 093°55'0 0.0
2018-Jun-19 00:30N 29°60' W 093°55'0 0.0
2018-Jun-19 00:00N 29°60' W 093°55'0 0.0
2018-Jun-18 23:30N 29°60' W 093°55'0 0.0
2018-Jun-18 23:00N 29°60' W 093°55'0 0.0
2018-Jun-18 22:30N 29°60' W 093°55'0 0.0
2018-Jun-18 22:00N 29°60' W 093°55'0 0.0
2018-Jun-18 21:30N 29°60' W 093°55'0 0.0
2018-Jun-18 21:00N 29°60' W 093°55'1 1.5
2018-Jun-18 20:30N 29°59' W 093°56'3 5.9
2018-Jun-18 20:00N 29°59' W 093°52'3 5.1
2018-Jun-18 19:30N 29°59' W 093°49'2 4.0
2018-Jun-18 19:00N 29°60' W 093°47'0 0.1
2018-Jun-18 18:30N 29°60' W 093°47'0 0.0
2018-Jun-18 18:00N 29°60' W 093°47'0 0.2
2018-Jun-18 17:30N 29°59' W 093°47'0 0.1
2018-Jun-18 17:00N 29°59' W 093°47'1 1.3
2018-Jun-18 16:30N 29°60' W 093°47'3 5.2
2018-Jun-18 16:00N 30°02' W 093°44'3 5.1
2018-Jun-18 15:30N 30°03' W 093°42'3 5.3
2018-Jun-18 15:00N 30°04' W 093°39'3 5.4
2018-Jun-18 14:30N 30°04' W 093°36'3 5.1
2018-Jun-18 14:00N 30°04' W 093°33'3 5.3
2018-Jun-18 13:29N 30°04' W 093°30'2 5.2
2018-Jun-18 13:00N 30°04' W 093°27'3 5.0
2018-Jun-18 12:30N 30°04' W 093°24'2 3.9
2018-Jun-18 12:00N 30°04' W 093°22'2 4.0
2018-Jun-18 11:30N 30°05' W 093°20'2 4.0
2018-Jun-18 11:00N 30°06' W 093°18'1 2.4
2018-Jun-18 10:30N 30°05' W 093°17'1 1.2
2018-Jun-18 10:00N 30°05' W 093°17'2 3.6
2018-Jun-18 09:30N 30°03' W 093°16'1 1.1
2018-Jun-18 09:00N 30°03' W 093°16'0 0.0
2018-Jun-18 08:30N 30°03' W 093°16'0 0.0
2018-Jun-18 08:00N 30°03' W 093°16'0 0.0
2018-Jun-18 07:30N 30°03' W 093°16'0 0.0
2018-Jun-18 07:00N 30°03' W 093°16'0 0.0
2018-Jun-18 06:30N 30°03' W 093°16'0 0.0
2018-Jun-18 06:00N 30°03' W 093°16'0 0.0
2018-Jun-18 05:30N 30°03' W 093°16'0 0.0
2018-Jun-18 05:00N 30°03' W 093°16'0 0.0
2018-Jun-18 04:30N 30°03' W 093°16'0 0.0
2018-Jun-18 04:00N 30°03' W 093°16'0 0.0
2018-Jun-18 03:30N 30°03' W 093°16'0 0.0
2018-Jun-18 03:00N 30°03' W 093°16'1 1.2
2018-Jun-18 02:30N 30°02' W 093°15'2 4.5
2018-Jun-18 02:00N 30°00' W 093°14'2 3.6
2018-Jun-18 01:30N 29°59' W 093°12'0 0.0
2018-Jun-18 01:00N 29°59' W 093°12'0 0.0
2018-Jun-18 00:30N 29°59' W 093°12'0 0.0
2018-Jun-18 00:00N 29°59' W 093°12'0 0.0
2018-Jun-17 23:29N 29°59' W 093°12'0 0.0
2018-Jun-17 23:00N 29°59' W 093°12'0 0.7
2018-Jun-17 22:30N 29°59' W 093°12'0 0.3
2018-Jun-17 22:00N 29°59' W 093°12'0 0.8
2018-Jun-17 21:30N 29°58' W 093°12'2 4.3
2018-Jun-17 21:00N 29°57' W 093°10'2 4.9
2018-Jun-17 20:30N 29°56' W 093°07'35 4.8
2018-Jun-17 13:14N 29°54' W 092°27'1 4.6
2018-Jun-17 13:00N 29°53' W 092°26'3 4.4
2018-Jun-17 12:22N 29°52' W 092°23'2 4.5
2018-Jun-17 12:00N 29°51' W 092°22'2 3.0
2018-Jun-17 11:30N 29°51' W 092°20'2 3.6
2018-Jun-17 11:00N 29°50' W 092°18'2 4.6
2018-Jun-17 10:30N 29°49' W 092°16'2 4.6
2018-Jun-17 10:00N 29°48' W 092°14'1 2.2
2018-Jun-17 09:30N 29°47' W 092°12'1 2.3
2018-Jun-17 09:00N 29°47' W 092°11'0 0.0
2018-Jun-17 08:30N 29°47' W 092°11'0 0.1
2018-Jun-17 08:00N 29°47' W 092°11'0 0.8
2018-Jun-17 07:30N 29°47' W 092°11'0 0.0
2018-Jun-17 07:00N 29°47' W 092°11'1 1.5
2018-Jun-17 06:30N 29°47' W 092°10'3 5.5
2018-Jun-17 06:00N 29°48' W 092°07'3 5.1
2018-Jun-17 05:30N 29°48' W 092°04'2 4.9
2018-Jun-17 05:00N 29°49' W 092°01'3 4.9
2018-Jun-17 04:29N 29°50' W 091°59'2 5.1
2018-Jun-17 04:00N 29°51' W 091°56'58 4.1
2018-Jun-16 13:49N 29°32' W 090°53'2 5.1
2018-Jun-16 13:25N 29°32' W 090°51'2 5.2
2018-Jun-16 13:00N 29°32' W 090°48'2 4.6
2018-Jun-16 12:30N 29°33' W 090°46'2 4.3
2018-Jun-16 12:00N 29°34' W 090°44'2 4.4
2018-Jun-16 11:30N 29°36' W 090°43'2 3.4
2018-Jun-16 11:00N 29°36' W 090°41'3 5.0
2018-Jun-16 10:30N 29°35' W 090°38'2 4.1
2018-Jun-16 10:00N 29°35' W 090°36'2 4.0
2018-Jun-16 09:30N 29°34' W 090°34'3 5.0
2018-Jun-16 08:58N 29°34' W 090°31'9 0.2
2018-Jun-14 11:09N 29°38' W 090°21'1 6.6
2018-Jun-14 11:00N 29°37' W 090°21'3 5.6
2018-Jun-14 10:29N 29°34' W 090°23'2 3.9
2018-Jun-14 10:00N 29°33' W 090°25'3 1.0
2018-Jun-14 06:56N 29°33' W 090°28'3 7.0
2018-Jun-14 06:31N 29°34' W 090°31'3 6.7
2018-Jun-14 06:00N 29°35' W 090°35'3 5.9
2018-Jun-14 05:30N 29°35' W 090°38'3 6.2
2018-Jun-14 05:01N 29°37' W 090°41'2 4.3
2018-Jun-14 04:31N 29°35' W 090°43'3 5.1
2018-Jun-14 04:01N 29°33' W 090°45'0 0.1
2018-Jun-14 03:30N 29°33' W 090°45'0 0.0
2018-Jun-14 03:01N 29°33' W 090°45'1 1.7
2018-Jun-14 02:31N 29°32' W 090°46'4 7.9
2018-Jun-14 02:01N 29°32' W 090°50'4 7.9
2018-Jun-14 01:30N 29°33' W 090°55'56 5.3
2018-Jun-13 14:49N 29°51' W 091°56'2 6.3
2018-Jun-13 14:30N 29°50' W 091°58'3 6.0
2018-Jun-13 14:00N 29°49' W 092°01'3 6.5
2018-Jun-13 13:30N 29°48' W 092°05'3 6.7
2018-Jun-13 13:00N 29°47' W 092°09'3 6.0
2018-Jun-13 12:30N 29°47' W 092°12'2 3.7
2018-Jun-13 12:00N 29°48' W 092°14'3 6.3
2018-Jun-13 11:29N 29°49' W 092°17'3 5.4
2018-Jun-13 11:00N 29°51' W 092°20'3 5.2
2018-Jun-13 10:29N 29°52' W 092°22'31 5.5
2018-Jun-13 04:57N 29°56' W 092°57'3 5.8
2018-Jun-13 04:25N 29°56' W 093°01'3 5.9
2018-Jun-13 03:59N 29°56' W 093°04'2 3.5
2018-Jun-13 03:30N 29°56' W 093°06'3 5.8
2018-Jun-13 03:00N 29°56' W 093°09'2 4.6
2018-Jun-13 02:30N 29°58' W 093°11'2 3.8
2018-Jun-13 02:00N 29°59' W 093°12'3 5.3
2018-Jun-13 01:30N 30°01' W 093°14'2 4.6
2018-Jun-13 01:00N 30°03' W 093°16'3 5.3
2018-Jun-13 00:30N 30°05' W 093°18'0 0.4
2018-Jun-13 00:00N 30°05' W 093°18'1 1.6
2018-Jun-12 23:30N 30°06' W 093°18'0 0.2
2018-Jun-12 23:00N 30°06' W 093°18'0 0.6
2018-Jun-12 22:30N 30°06' W 093°19'0 0.0
2018-Jun-12 22:00N 30°06' W 093°19'0 0.0
2018-Jun-12 21:30N 30°06' W 093°19'0 0.0
2018-Jun-12 21:00N 30°06' W 093°19'0 0.0
2018-Jun-12 20:30N 30°06' W 093°19'0 0.0
2018-Jun-12 20:00N 30°06' W 093°19'0 0.0
2018-Jun-12 19:30N 30°06' W 093°19'0 0.0
2018-Jun-12 19:00N 30°06' W 093°19'0 0.0
2018-Jun-12 18:30N 30°06' W 093°19'0 0.0
2018-Jun-12 18:00N 30°06' W 093°19'0 0.0
2018-Jun-12 17:30N 30°06' W 093°19'0 0.0
2018-Jun-12 17:00N 30°06' W 093°19'0 0.0
2018-Jun-12 16:30N 30°06' W 093°19'0 0.0
2018-Jun-12 16:00N 30°06' W 093°19'0 0.0
2018-Jun-12 15:30N 30°06' W 093°19'0 0.0
2018-Jun-12 15:00N 30°06' W 093°19'0 0.0
2018-Jun-12 14:30N 30°06' W 093°19'0 0.0
2018-Jun-12 14:00N 30°06' W 093°19'0 0.0
2018-Jun-12 13:30N 30°06' W 093°19'0 0.0
2018-Jun-12 13:00N 30°06' W 093°19'0 0.0
2018-Jun-12 12:30N 30°06' W 093°19'0 0.0
2018-Jun-12 12:00N 30°06' W 093°19'0 0.0
2018-Jun-12 11:30N 30°06' W 093°19'0 0.0
2018-Jun-12 11:00N 30°06' W 093°19'0 0.0
2018-Jun-12 10:30N 30°06' W 093°19'0 0.0
2018-Jun-12 10:00N 30°06' W 093°19'0 0.0
2018-Jun-12 09:30N 30°06' W 093°19'0 0.0
2018-Jun-12 09:00N 30°06' W 093°19'0 0.0
2018-Jun-12 08:30N 30°06' W 093°19'0 0.0
2018-Jun-12 08:00N 30°06' W 093°19'0 0.0
2018-Jun-12 07:30N 30°06' W 093°19'0 0.0
2018-Jun-12 07:00N 30°06' W 093°19'0 0.0
2018-Jun-12 06:30N 30°06' W 093°19'0 0.0
2018-Jun-12 06:00N 30°06' W 093°19'0 0.0
2018-Jun-12 05:30N 30°06' W 093°19'0 0.0
2018-Jun-12 05:00N 30°06' W 093°19'0 0.0
2018-Jun-12 04:30N 30°06' W 093°19'0 0.0
2018-Jun-12 04:00N 30°06' W 093°19'0 0.0
2018-Jun-12 03:30N 30°06' W 093°19'0 0.0
2018-Jun-12 03:00N 30°06' W 093°19'0 0.0
2018-Jun-12 02:30N 30°06' W 093°19'0 0.0
2018-Jun-12 02:00N 30°06' W 093°19'0 0.0
2018-Jun-12 01:30N 30°06' W 093°19'0 0.0
2018-Jun-12 01:00N 30°06' W 093°19'0 0.0
2018-Jun-12 00:30N 30°06' W 093°19'0 0.0
2018-Jun-12 00:00N 30°06' W 093°19'0 0.2
2018-Jun-11 23:30N 30°06' W 093°19'3 6.5
2018-Jun-11 23:00N 30°04' W 093°21'3 6.9
2018-Jun-11 22:30N 30°04' W 093°25'3 6.6
2018-Jun-11 22:00N 30°04' W 093°29'3 6.6
2018-Jun-11 21:30N 30°04' W 093°33'4 7.0
2018-Jun-11 21:00N 30°04' W 093°37'3 6.8
2018-Jun-11 20:30N 30°04' W 093°41'3 6.4
2018-Jun-11 20:00N 30°02' W 093°44'3 6.6
2018-Jun-11 19:30N 29°60' W 093°47'4 7.5
2018-Jun-11 19:00N 29°58' W 093°51'3 6.7
2018-Jun-11 18:30N 29°59' W 093°54'0 0.4
2018-Jun-11 18:00N 29°60' W 093°55'3 6.3
2018-Jun-11 17:30N 29°58' W 093°51'4 7.6
2018-Jun-11 17:00N 29°55' W 093°53'4 7.1
2018-Jun-11 16:30N 29°52' W 093°56'3 6.3
2018-Jun-11 16:00N 29°49' W 093°58'2 4.9
2018-Jun-11 15:30N 29°48' W 094°00'3 6.5
2018-Jun-11 15:00N 29°46' W 094°03'3 6.5
2018-Jun-11 14:30N 29°44' W 094°06'3 6.3
2018-Jun-11 14:00N 29°42' W 094°09'3 6.1
2018-Jun-11 13:30N 29°41' W 094°12'2 3.7
2018-Jun-11 13:00N 29°40' W 094°14'3 6.0
2018-Jun-11 12:30N 29°39' W 094°17'3 5.8
2018-Jun-11 12:00N 29°37' W 094°20'3 5.6
2018-Jun-11 11:30N 29°36' W 094°23'2 3.6
2018-Jun-11 10:56N 29°35' W 094°25'2 3.7
2018-Jun-11 10:30N 29°34' W 094°26'5 3.8
2018-Jun-11 09:10N 29°31' W 094°31'1 2.9
2018-Jun-11 08:59N 29°31' W 094°32'15 5.7
2018-Jun-11 06:25N 29°23' W 094°46'2 4.9
2018-Jun-11 06:00N 29°22' W 094°48'9 6.7
2018-Jun-11 04:44N 29°30' W 094°52'2 8.6
2018-Jun-11 04:28N 29°32' W 094°54'4 8.5
2018-Jun-11 04:00N 29°35' W 094°56'4 7.3
2018-Jun-11 03:28N 29°39' W 094°58'4 7.9
2018-Jun-11 03:00N 29°42' W 095°00'4 6.9
2018-Jun-11 02:24N 29°45' W 095°04'2 5.4
2018-Jun-11 02:00N 29°47' W 095°05'1 0.9
2018-Jun-11 01:24N 29°47' W 095°04'1 2.5
2018-Jun-11 00:57N 29°47' W 095°06'  
Track history (hours):
 
Tides and Currents Weather Stations Pressure Air Temp Water Temp Dewpoint Dewpoint Depression Visibility Wind Speed Wind Dir Waves Ship Positions

Donny Nolan

Owner: Kirby Inland Marine LP, Houston, TX. More information available from US FCC via Universal Licensing System and Coast Guard Vessel Documentation Center.

Last reported at 2018-Jun-20 19:53 UTC. Time now 2018-Jun-21 12:21 UTC.
Position N 28°56' W 095°20'.

Length 214 m; draft 3 m.

Type: . MMSI: 367415220.

Date/timePositionNaut miles runAvg speedWind from/ knotsBaromVisibWave heightAir tempDewpointWater temp
2018-Jun-20 19:53N 28°56' W 095°20'2 4.5
2018-Jun-20 19:30N 28°57' W 095°18'2 4.8
2018-Jun-20 19:00N 28°59' W 095°17'2 4.8
2018-Jun-20 18:30N 29°00' W 095°15'2 4.6
2018-Jun-20 18:00N 29°02' W 095°14'2 4.5
2018-Jun-20 17:30N 29°04' W 095°13'2 4.4
2018-Jun-20 17:00N 29°06' W 095°12'2 4.7
2018-Jun-20 16:30N 29°08' W 095°10'3 5.2
2018-Jun-20 16:00N 29°10' W 095°08'2 4.6
2018-Jun-20 15:29N 29°11' W 095°05'2 4.8
2018-Jun-20 15:00N 29°12' W 095°03'2 4.3
2018-Jun-20 14:30N 29°14' W 095°02'2 4.5
2018-Jun-20 14:00N 29°16' W 094°60'2 4.5
2018-Jun-20 13:30N 29°17' W 094°58'2 4.6
2018-Jun-20 13:00N 29°17' W 094°55'2 4.0
2018-Jun-20 12:30N 29°18' W 094°53'2 4.8
2018-Jun-20 12:00N 29°20' W 094°51'21 4.7
2018-Jun-20 07:26N 29°31' W 094°30'2 4.3
2018-Jun-20 06:59N 29°32' W 094°29'0 0.4
2018-Jun-20 06:29N 29°33' W 094°28'1 1.3
2018-Jun-20 05:53N 29°33' W 094°28'2 5.2
2018-Jun-20 05:25N 29°34' W 094°25'2 4.2
2018-Jun-20 05:00N 29°36' W 094°25'2 4.7
2018-Jun-20 04:30N 29°36' W 094°22'3 5.1
2018-Jun-20 04:00N 29°37' W 094°20'3 5.1
2018-Jun-20 03:30N 29°39' W 094°17'3 5.2
2018-Jun-20 03:00N 29°40' W 094°14'3 5.1
2018-Jun-20 02:30N 29°41' W 094°12'2 4.9
2018-Jun-20 02:00N 29°42' W 094°09'2 4.9
2018-Jun-20 01:30N 29°43' W 094°07'2 4.9
2018-Jun-20 01:00N 29°45' W 094°05'2 4.9
2018-Jun-20 00:30N 29°46' W 094°02'2 4.7
2018-Jun-20 00:01N 29°48' W 094°00'2 4.5
2018-Jun-19 23:30N 29°49' W 093°58'3 5.4
2018-Jun-19 23:00N 29°51' W 093°57'3 6.4
2018-Jun-19 22:30N 29°54' W 093°54'3 6.4
2018-Jun-19 22:00N 29°56' W 093°52'2 4.9
2018-Jun-19 21:30N 29°59' W 093°53'1 2.5
2018-Jun-19 21:00N 29°59' W 093°54'0 0.9
2018-Jun-19 20:30N 29°59' W 093°54'1 1.1
2018-Jun-19 20:01N 29°60' W 093°55'0 0.1
2018-Jun-19 19:30N 29°60' W 093°55'0 0.1
2018-Jun-19 19:00N 29°60' W 093°55'0 0.0
2018-Jun-19 18:30N 29°60' W 093°55'0 0.0
2018-Jun-19 18:00N 29°60' W 093°55'0 0.0
2018-Jun-19 17:30N 29°60' W 093°55'0 0.0
2018-Jun-19 17:00N 29°60' W 093°55'0 0.0
2018-Jun-19 16:30N 29°60' W 093°55'0 0.0
2018-Jun-19 16:00N 29°60' W 093°55'0 0.0
2018-Jun-19 15:30N 29°60' W 093°55'0 0.0
2018-Jun-19 15:00N 29°60' W 093°55'0 0.0
2018-Jun-19 14:30N 29°60' W 093°55'0 0.0
2018-Jun-19 14:00N 29°60' W 093°55'0 0.0
2018-Jun-19 13:30N 29°60' W 093°55'0 0.0
2018-Jun-19 13:00N 29°60' W 093°55'0 0.0
2018-Jun-19 12:30N 29°60' W 093°55'0 0.0
2018-Jun-19 12:00N 29°60' W 093°55'0 0.0
2018-Jun-19 11:30N 29°60' W 093°55'0 0.0
2018-Jun-19 11:00N 29°60' W 093°55'0 0.0
2018-Jun-19 10:30N 29°60' W 093°55'0 0.0
2018-Jun-19 09:56N 29°60' W 093°55'0 0.0
2018-Jun-19 09:30N 29°60' W 093°55'0 0.0
2018-Jun-19 09:00N 29°60' W 093°55'0 0.0
2018-Jun-19 08:30N 29°60' W 093°55'0 0.0
2018-Jun-19 07:59N 29°60' W 093°55'0 0.0
2018-Jun-19 07:30N 29°60' W 093°55'0 0.0
2018-Jun-19 07:00N 29°60' W 093°55'0 0.0
2018-Jun-19 06:30N 29°60' W 093°55'0 0.0
2018-Jun-19 06:00N 29°60' W 093°55'0 0.0
2018-Jun-19 05:30N 29°60' W 093°55'0 0.0
2018-Jun-19 05:00N 29°60' W 093°55'0 0.0
2018-Jun-19 04:30N 29°60' W 093°55'0 0.0
2018-Jun-19 04:00N 29°60' W 093°55'0 0.0
2018-Jun-19 03:30N 29°60' W 093°55'0 0.0
2018-Jun-19 03:00N 29°60' W 093°55'0 0.0
2018-Jun-19 02:30N 29°60' W 093°55'0 0.0
2018-Jun-19 02:00N 29°60' W 093°55'0 0.0
2018-Jun-19 01:30N 29°60' W 093°55'0 0.0
2018-Jun-19 01:00N 29°60' W 093°55'0 0.0
2018-Jun-19 00:30N 29°60' W 093°55'0 0.0
2018-Jun-19 00:00N 29°60' W 093°55'0 0.0
2018-Jun-18 23:30N 29°60' W 093°55'0 0.0
2018-Jun-18 23:00N 29°60' W 093°55'0 0.0
2018-Jun-18 22:30N 29°60' W 093°55'0 0.0
2018-Jun-18 22:00N 29°60' W 093°55'0 0.0
2018-Jun-18 21:30N 29°60' W 093°55'0 0.0
2018-Jun-18 21:00N 29°60' W 093°55'1 1.5
2018-Jun-18 20:30N 29°59' W 093°56'3 5.9
2018-Jun-18 20:00N 29°59' W 093°52'3 5.1
2018-Jun-18 19:30N 29°59' W 093°49'2 4.0
2018-Jun-18 19:00N 29°60' W 093°47'0 0.1
2018-Jun-18 18:30N 29°60' W 093°47'0 0.0
2018-Jun-18 18:00N 29°60' W 093°47'0 0.2
2018-Jun-18 17:30N 29°59' W 093°47'0 0.1
2018-Jun-18 17:00N 29°59' W 093°47'1 1.3
2018-Jun-18 16:30N 29°60' W 093°47'3 5.2
2018-Jun-18 16:00N 30°02' W 093°44'3 5.1
2018-Jun-18 15:30N 30°03' W 093°42'3 5.3
2018-Jun-18 15:00N 30°04' W 093°39'3 5.4
2018-Jun-18 14:30N 30°04' W 093°36'3 5.1
2018-Jun-18 14:00N 30°04' W 093°33'3 5.3
2018-Jun-18 13:29N 30°04' W 093°30'2 5.2
2018-Jun-18 13:00N 30°04' W 093°27'3 5.0
2018-Jun-18 12:30N 30°04' W 093°24'2 3.9
2018-Jun-18 12:00N 30°04' W 093°22'2 4.0
2018-Jun-18 11:30N 30°05' W 093°20'2 4.0
2018-Jun-18 11:00N 30°06' W 093°18'1 2.4
2018-Jun-18 10:30N 30°05' W 093°17'1 1.2
2018-Jun-18 10:00N 30°05' W 093°17'2 3.6
2018-Jun-18 09:30N 30°03' W 093°16'1 1.1
2018-Jun-18 09:00N 30°03' W 093°16'0 0.0
2018-Jun-18 08:30N 30°03' W 093°16'0 0.0
2018-Jun-18 08:00N 30°03' W 093°16'0 0.0
2018-Jun-18 07:30N 30°03' W 093°16'0 0.0
2018-Jun-18 07:00N 30°03' W 093°16'0 0.0
2018-Jun-18 06:30N 30°03' W 093°16'0 0.0
2018-Jun-18 06:00N 30°03' W 093°16'0 0.0
2018-Jun-18 05:30N 30°03' W 093°16'0 0.0
2018-Jun-18 05:00N 30°03' W 093°16'0 0.0
2018-Jun-18 04:30N 30°03' W 093°16'0 0.0
2018-Jun-18 04:00N 30°03' W 093°16'0 0.0
2018-Jun-18 03:30N 30°03' W 093°16'0 0.0
2018-Jun-18 03:00N 30°03' W 093°16'1 1.2
2018-Jun-18 02:30N 30°02' W 093°15'2 4.5
2018-Jun-18 02:00N 30°00' W 093°14'2 3.6
2018-Jun-18 01:30N 29°59' W 093°12'0 0.0
2018-Jun-18 01:00N 29°59' W 093°12'0 0.0
2018-Jun-18 00:30N 29°59' W 093°12'0 0.0
2018-Jun-18 00:00N 29°59' W 093°12'0 0.0
2018-Jun-17 23:29N 29°59' W 093°12'0 0.0
2018-Jun-17 23:00N 29°59' W 093°12'0 0.7
2018-Jun-17 22:30N 29°59' W 093°12'0 0.3
2018-Jun-17 22:00N 29°59' W 093°12'0 0.8
2018-Jun-17 21:30N 29°58' W 093°12'2 4.3
2018-Jun-17 21:00N 29°57' W 093°10'2 4.9
2018-Jun-17 20:30N 29°56' W 093°07'35 4.8
2018-Jun-17 13:14N 29°54' W 092°27'1 4.6
2018-Jun-17 13:00N 29°53' W 092°26'3 4.4
2018-Jun-17 12:22N 29°52' W 092°23'2 4.5
2018-Jun-17 12:00N 29°51' W 092°22'2 3.0
2018-Jun-17 11:30N 29°51' W 092°20'2 3.6
2018-Jun-17 11:00N 29°50' W 092°18'2 4.6
2018-Jun-17 10:30N 29°49' W 092°16'2 4.6
2018-Jun-17 10:00N 29°48' W 092°14'1 2.2
2018-Jun-17 09:30N 29°47' W 092°12'1 2.3
2018-Jun-17 09:00N 29°47' W 092°11'0 0.0
2018-Jun-17 08:30N 29°47' W 092°11'0 0.1
2018-Jun-17 08:00N 29°47' W 092°11'0 0.8
2018-Jun-17 07:30N 29°47' W 092°11'0 0.0
2018-Jun-17 07:00N 29°47' W 092°11'1 1.5
2018-Jun-17 06:30N 29°47' W 092°10'3 5.5
2018-Jun-17 06:00N 29°48' W 092°07'3 5.1
2018-Jun-17 05:30N 29°48' W 092°04'2 4.9
2018-Jun-17 05:00N 29°49' W 092°01'3 4.9
2018-Jun-17 04:29N 29°50' W 091°59'2 5.1
2018-Jun-17 04:00N 29°51' W 091°56'58 4.1
2018-Jun-16 13:49N 29°32' W 090°53'2 5.1
2018-Jun-16 13:25N 29°32' W 090°51'2 5.2
2018-Jun-16 13:00N 29°32' W 090°48'2 4.6
2018-Jun-16 12:30N 29°33' W 090°46'2 4.3
2018-Jun-16 12:00N 29°34' W 090°44'2 4.4
2018-Jun-16 11:30N 29°36' W 090°43'2 3.4
2018-Jun-16 11:00N 29°36' W 090°41'3 5.0
2018-Jun-16 10:30N 29°35' W 090°38'2 4.1
2018-Jun-16 10:00N 29°35' W 090°36'2 4.0
2018-Jun-16 09:30N 29°34' W 090°34'3 5.0
2018-Jun-16 08:58N 29°34' W 090°31'9 0.2
2018-Jun-14 11:09N 29°38' W 090°21'1 6.6
2018-Jun-14 11:00N 29°37' W 090°21'3 5.6
2018-Jun-14 10:29N 29°34' W 090°23'2 3.9
2018-Jun-14 10:00N 29°33' W 090°25'3 1.0
2018-Jun-14 06:56N 29°33' W 090°28'3 7.0
2018-Jun-14 06:31N 29°34' W 090°31'3 6.7
2018-Jun-14 06:00N 29°35' W 090°35'3 5.9
2018-Jun-14 05:30N 29°35' W 090°38'3 6.2
2018-Jun-14 05:01N 29°37' W 090°41'2 4.3
2018-Jun-14 04:31N 29°35' W 090°43'3 5.1
2018-Jun-14 04:01N 29°33' W 090°45'0 0.1
2018-Jun-14 03:30N 29°33' W 090°45'0 0.0
2018-Jun-14 03:01N 29°33' W 090°45'1 1.7
2018-Jun-14 02:31N 29°32' W 090°46'4 7.9
2018-Jun-14 02:01N 29°32' W 090°50'4 7.9
2018-Jun-14 01:30N 29°33' W 090°55'56 5.3
2018-Jun-13 14:49N 29°51' W 091°56'2 6.3
2018-Jun-13 14:30N 29°50' W 091°58'3 6.0
2018-Jun-13 14:00N 29°49' W 092°01'3 6.5
2018-Jun-13 13:30N 29°48' W 092°05'3 6.7
2018-Jun-13 13:00N 29°47' W 092°09'3 6.0
2018-Jun-13 12:30N 29°47' W 092°12'2 3.7
2018-Jun-13 12:00N 29°48' W 092°14'3 6.3
2018-Jun-13 11:29N 29°49' W 092°17'3 5.4
2018-Jun-13 11:00N 29°51' W 092°20'3 5.2
2018-Jun-13 10:29N 29°52' W 092°22'31 5.5
2018-Jun-13 04:57N 29°56' W 092°57'3 5.8
2018-Jun-13 04:25N 29°56' W 093°01'3 5.9
2018-Jun-13 03:59N 29°56' W 093°04'2 3.5
2018-Jun-13 03:30N 29°56' W 093°06'3 5.8
2018-Jun-13 03:00N 29°56' W 093°09'2 4.6
2018-Jun-13 02:30N 29°58' W 093°11'2 3.8
2018-Jun-13 02:00N 29°59' W 093°12'3 5.3
2018-Jun-13 01:30N 30°01' W 093°14'2 4.6
2018-Jun-13 01:00N 30°03' W 093°16'3 5.3
2018-Jun-13 00:30N 30°05' W 093°18'0 0.4
2018-Jun-13 00:00N 30°05' W 093°18'1 1.6
2018-Jun-12 23:30N 30°06' W 093°18'0 0.2
2018-Jun-12 23:00N 30°06' W 093°18'0 0.6
2018-Jun-12 22:30N 30°06' W 093°19'0 0.0
2018-Jun-12 22:00N 30°06' W 093°19'0 0.0
2018-Jun-12 21:30N 30°06' W 093°19'0 0.0
2018-Jun-12 21:00N 30°06' W 093°19'0 0.0
2018-Jun-12 20:30N 30°06' W 093°19'0 0.0
2018-Jun-12 20:00N 30°06' W 093°19'0 0.0
2018-Jun-12 19:30N 30°06' W 093°19'0 0.0
2018-Jun-12 19:00N 30°06' W 093°19'0 0.0
2018-Jun-12 18:30N 30°06' W 093°19'0 0.0
2018-Jun-12 18:00N 30°06' W 093°19'0 0.0
2018-Jun-12 17:30N 30°06' W 093°19'0 0.0
2018-Jun-12 17:00N 30°06' W 093°19'0 0.0
2018-Jun-12 16:30N 30°06' W 093°19'0 0.0
2018-Jun-12 16:00N 30°06' W 093°19'0 0.0
2018-Jun-12 15:30N 30°06' W 093°19'0 0.0
2018-Jun-12 15:00N 30°06' W 093°19'0 0.0
2018-Jun-12 14:30N 30°06' W 093°19'0 0.0
2018-Jun-12 14:00N 30°06' W 093°19'0 0.0
2018-Jun-12 13:30N 30°06' W 093°19'0 0.0
2018-Jun-12 13:00N 30°06' W 093°19'0 0.0
2018-Jun-12 12:30N 30°06' W 093°19'0 0.0
2018-Jun-12 12:00N 30°06' W 093°19'0 0.0
2018-Jun-12 11:30N 30°06' W 093°19'0 0.0
2018-Jun-12 11:00N 30°06' W 093°19'0 0.0
2018-Jun-12 10:30N 30°06' W 093°19'0 0.0
2018-Jun-12 10:00N 30°06' W 093°19'0 0.0
2018-Jun-12 09:30N 30°06' W 093°19'0 0.0
2018-Jun-12 09:00N 30°06' W 093°19'0 0.0
2018-Jun-12 08:30N 30°06' W 093°19'0 0.0
2018-Jun-12 08:00N 30°06' W 093°19'0 0.0
2018-Jun-12 07:30N 30°06' W 093°19'0 0.0
2018-Jun-12 07:00N 30°06' W 093°19'0 0.0
2018-Jun-12 06:30N 30°06' W 093°19'0 0.0
2018-Jun-12 06:00N 30°06' W 093°19'0 0.0
2018-Jun-12 05:30N 30°06' W 093°19'0 0.0
2018-Jun-12 05:00N 30°06' W 093°19'0 0.0
2018-Jun-12 04:30N 30°06' W 093°19'0 0.0
2018-Jun-12 04:00N 30°06' W 093°19'0 0.0
2018-Jun-12 03:30N 30°06' W 093°19'0 0.0
2018-Jun-12 03:00N 30°06' W 093°19'0 0.0
2018-Jun-12 02:30N 30°06' W 093°19'0 0.0
2018-Jun-12 02:00N 30°06' W 093°19'0 0.0
2018-Jun-12 01:30N 30°06' W 093°19'0 0.0
2018-Jun-12 01:00N 30°06' W 093°19'0 0.0
2018-Jun-12 00:30N 30°06' W 093°19'0 0.0
2018-Jun-12 00:00N 30°06' W 093°19'0 0.2
2018-Jun-11 23:30N 30°06' W 093°19'3 6.5
2018-Jun-11 23:00N 30°04' W 093°21'3 6.9
2018-Jun-11 22:30N 30°04' W 093°25'3 6.6
2018-Jun-11 22:00N 30°04' W 093°29'3 6.6
2018-Jun-11 21:30N 30°04' W 093°33'4 7.0
2018-Jun-11 21:00N 30°04' W 093°37'3 6.8
2018-Jun-11 20:30N 30°04' W 093°41'3 6.4
2018-Jun-11 20:00N 30°02' W 093°44'3 6.6
2018-Jun-11 19:30N 29°60' W 093°47'4 7.5
2018-Jun-11 19:00N 29°58' W 093°51'3 6.7
2018-Jun-11 18:30N 29°59' W 093°54'0 0.4
2018-Jun-11 18:00N 29°60' W 093°55'3 6.3
2018-Jun-11 17:30N 29°58' W 093°51'4 7.6
2018-Jun-11 17:00N 29°55' W 093°53'4 7.1
2018-Jun-11 16:30N 29°52' W 093°56'3 6.3
2018-Jun-11 16:00N 29°49' W 093°58'2 4.9
2018-Jun-11 15:30N 29°48' W 094°00'3 6.5
2018-Jun-11 15:00N 29°46' W 094°03'3 6.5
2018-Jun-11 14:30N 29°44' W 094°06'3 6.3
2018-Jun-11 14:00N 29°42' W 094°09'3 6.1
2018-Jun-11 13:30N 29°41' W 094°12'2 3.7
2018-Jun-11 13:00N 29°40' W 094°14'3 6.0
2018-Jun-11 12:30N 29°39' W 094°17'3 5.8
2018-Jun-11 12:00N 29°37' W 094°20'3 5.6
2018-Jun-11 11:30N 29°36' W 094°23'2 3.6
2018-Jun-11 10:56N 29°35' W 094°25'2 3.7
2018-Jun-11 10:30N 29°34' W 094°26'5 3.8
2018-Jun-11 09:10N 29°31' W 094°31'1 2.9
2018-Jun-11 08:59N 29°31' W 094°32'15 5.7
2018-Jun-11 06:25N 29°23' W 094°46'2 4.9
2018-Jun-11 06:00N 29°22' W 094°48'9 6.7
2018-Jun-11 04:44N 29°30' W 094°52'2 8.6
2018-Jun-11 04:28N 29°32' W 094°54'4 8.5
2018-Jun-11 04:00N 29°35' W 094°56'4 7.3
2018-Jun-11 03:28N 29°39' W 094°58'4 7.9
2018-Jun-11 03:00N 29°42' W 095°00'4 6.9
2018-Jun-11 02:24N 29°45' W 095°04'2 5.4
2018-Jun-11 02:00N 29°47' W 095°05'1 0.9
2018-Jun-11 01:24N 29°47' W 095°04'1 2.5
2018-Jun-11 00:57N 29°47' W 095°06'  

Dump ship's entire track history